createdAt,value
2018-04-30T00:01:48.992Z,21.40
2018-04-30T00:04:25.298Z,21.40
2018-04-30T00:07:01.459Z,21.40
2018-04-30T00:09:37.369Z,21.40
2018-04-30T00:12:13.142Z,21.40
2018-04-30T00:14:44.204Z,21.40
2018-04-30T00:17:13.325Z,21.40
2018-04-30T00:19:42.583Z,21.40
2018-04-30T00:22:11.324Z,21.40
2018-04-30T00:24:40.044Z,21.40
2018-04-30T00:27:09.167Z,21.40
2018-04-30T00:29:38.293Z,21.40
2018-04-30T00:32:06.764Z,21.30
2018-04-30T00:34:36.044Z,21.20
2018-04-30T00:37:05.004Z,21.10
2018-04-30T00:39:34.264Z,21.00
2018-04-30T00:42:02.763Z,20.90
2018-04-30T00:44:32.524Z,20.60
2018-04-30T00:47:02.785Z,20.30
2018-04-30T00:49:31.263Z,20.30
2018-04-30T00:52:00.003Z,20.10
2018-04-30T00:54:40.763Z,20.00
2018-04-30T00:57:09.904Z,19.90
2018-04-30T00:59:38.504Z,19.90
2018-04-30T01:02:07.083Z,19.80
2018-04-30T01:04:35.723Z,19.70
2018-04-30T01:07:04.783Z,19.60
2018-04-30T01:09:33.963Z,19.50
2018-04-30T01:12:02.684Z,19.40
2018-04-30T01:14:31.483Z,19.20
2018-04-30T01:17:00.424Z,18.90
2018-04-30T01:19:29.684Z,18.80
2018-04-30T01:21:58.224Z,18.70
2018-04-30T01:24:27.263Z,18.60
2018-04-30T01:26:57.705Z,18.40
2018-04-30T01:29:26.224Z,18.40
2018-04-30T01:31:55.403Z,18.30
2018-04-30T01:34:24.684Z,18.20
2018-04-30T01:36:53.684Z,18.20
2018-04-30T01:39:22.644Z,18.20
2018-04-30T01:41:51.183Z,18.20
2018-04-30T01:44:20.905Z,18.30
2018-04-30T01:46:49.643Z,18.20
2018-04-30T01:49:18.484Z,18.20
2018-04-30T01:51:47.623Z,18.00
2018-04-30T01:54:17.644Z,17.80
2018-04-30T01:56:46.444Z,17.80
2018-04-30T01:59:14.843Z,17.60
2018-04-30T02:01:43.864Z,17.60
2018-04-30T02:04:12.844Z,17.60
2018-04-30T02:06:41.564Z,17.50
2018-04-30T02:09:10.584Z,17.60
2018-04-30T02:11:39.791Z,17.40
2018-04-30T02:14:08.824Z,17.40
2018-04-30T02:16:38.563Z,17.40
2018-04-30T02:19:07.063Z,17.30
2018-04-30T02:21:36.304Z,17.30
2018-04-30T02:24:04.984Z,17.30
2018-04-30T02:26:33.764Z,17.20
2018-04-30T02:29:02.964Z,17.00
2018-04-30T02:31:32.783Z,16.90
2018-04-30T02:34:01.284Z,16.70
2018-04-30T02:36:30.265Z,16.50
2018-04-30T02:38:59.004Z,16.30
2018-04-30T02:41:27.984Z,16.30
2018-04-30T02:43:57.504Z,16.20
2018-04-30T02:46:26.604Z,16.30
2018-04-30T02:48:55.523Z,16.30
2018-04-30T02:51:24.225Z,16.30
2018-04-30T02:53:52.704Z,16.30
2018-04-30T02:56:22.464Z,16.40
2018-04-30T02:58:51.643Z,16.10
2018-04-30T03:01:20.983Z,16.10
2018-04-30T03:03:50.464Z,16.20
2018-04-30T03:06:19.203Z,16.10
2018-04-30T03:08:47.944Z,16.20
2018-04-30T03:11:16.423Z,16.00
2018-04-30T03:13:44.944Z,16.00
2018-04-30T03:16:13.663Z,15.80
2018-04-30T03:18:42.363Z,15.80
2018-04-30T03:21:11.104Z,15.80
2018-04-30T03:23:39.883Z,15.80
2018-04-30T03:26:08.583Z,15.70
2018-04-30T03:28:37.323Z,15.80
2018-04-30T03:31:06.571Z,15.70
2018-04-30T03:33:35.323Z,15.70
2018-04-30T03:36:05.323Z,15.60
2018-04-30T03:38:34.084Z,15.60
2018-04-30T03:41:03.083Z,15.60
2018-04-30T03:43:31.484Z,15.50
2018-04-30T03:46:00.803Z,15.50
2018-04-30T03:48:29.771Z,15.40
2018-04-30T03:50:58.603Z,15.40
2018-04-30T03:53:27.063Z,15.30
2018-04-30T03:55:58.123Z,15.30
2018-04-30T03:58:27.305Z,15.20
2018-04-30T04:01:07.783Z,15.10
2018-04-30T04:03:47.803Z,15.10
2018-04-30T04:09:25.165Z,15.10
2018-04-30T04:11:54.043Z,14.90
2018-04-30T04:14:22.925Z,14.90
2018-04-30T04:16:51.679Z,14.90
2018-04-30T04:19:20.923Z,14.70
2018-04-30T04:21:49.724Z,14.70
2018-04-30T04:24:18.926Z,14.60
2018-04-30T04:26:48.688Z,14.60
2018-04-30T04:29:18.184Z,14.60
2018-04-30T04:31:47.171Z,14.60
2018-04-30T04:34:15.903Z,14.50
2018-04-30T04:36:44.643Z,14.50
2018-04-30T04:39:13.643Z,14.50
2018-04-30T04:41:42.436Z,14.60
2018-04-30T04:44:11.147Z,14.70
2018-04-30T04:46:40.363Z,14.70
2018-04-30T04:49:09.363Z,14.70
2018-04-30T04:51:38.533Z,14.60
2018-04-30T04:54:07.363Z,14.70
2018-04-30T04:56:37.085Z,14.60
2018-04-30T04:59:05.843Z,14.50
2018-04-30T05:01:35.104Z,14.40
2018-04-30T05:04:04.544Z,14.50
2018-04-30T05:06:33.327Z,14.50
2018-04-30T05:09:02.083Z,14.50
2018-04-30T05:11:32.103Z,14.50
2018-04-30T05:14:00.586Z,14.50
2018-04-30T05:16:30.383Z,14.40
2018-04-30T05:18:59.323Z,14.40
2018-04-30T05:21:28.343Z,14.40
2018-04-30T05:23:57.063Z,14.30
2018-04-30T05:26:26.306Z,14.20
2018-04-30T05:28:55.404Z,14.20
2018-04-30T05:31:27.584Z,14.20
2018-04-30T05:33:57.124Z,14.20
2018-04-30T05:36:26.123Z,14.20
2018-04-30T05:38:55.427Z,14.10
2018-04-30T05:41:24.643Z,14.20
2018-04-30T05:43:54.383Z,14.20
2018-04-30T05:46:23.363Z,14.30
2018-04-30T05:48:52.103Z,14.40
2018-04-30T05:51:20.844Z,14.30
2018-04-30T05:53:50.126Z,14.20
2018-04-30T05:56:19.083Z,14.30
2018-04-30T05:58:48.364Z,14.30
2018-04-30T06:01:17.843Z,14.40
2018-04-30T06:03:47.604Z,14.40
2018-04-30T06:06:16.846Z,14.40
2018-04-30T06:08:45.583Z,14.50
2018-04-30T06:11:14.844Z,14.70
2018-04-30T06:13:44.083Z,14.70
2018-04-30T06:16:13.103Z,14.80
2018-04-30T06:18:42.605Z,14.90
2018-04-30T06:21:11.844Z,14.90
2018-04-30T06:23:40.325Z,15.00
2018-04-30T06:26:09.323Z,15.20
2018-04-30T06:28:38.323Z,15.20
2018-04-30T06:31:07.324Z,15.20
2018-04-30T06:33:35.943Z,15.30
2018-04-30T06:36:04.283Z,15.50
2018-04-30T06:38:33.005Z,15.80
2018-04-30T06:41:02.524Z,15.90
2018-04-30T06:43:31.848Z,15.90
2018-04-30T06:46:00.723Z,16.00
2018-04-30T06:48:30.243Z,16.10
2018-04-30T06:50:58.985Z,16.30
2018-04-30T06:53:27.615Z,16.30
2018-04-30T06:55:56.965Z,16.50
2018-04-30T06:58:25.524Z,16.70
2018-04-30T07:00:54.444Z,16.90
2018-04-30T07:03:23.611Z,16.90
2018-04-30T07:05:52.164Z,16.90
2018-04-30T07:08:20.924Z,17.10
2018-04-30T07:10:49.390Z,17.40
2018-04-30T07:13:18.650Z,17.30
2018-04-30T07:15:48.090Z,17.30
2018-04-30T07:18:17.151Z,17.40
2018-04-30T07:20:46.649Z,17.30
2018-04-30T07:23:15.912Z,17.20
2018-04-30T07:25:44.892Z,17.10
2018-04-30T07:28:14.391Z,17.10
2018-04-30T07:30:43.391Z,17.10
2018-04-30T07:33:12.759Z,17.20
2018-04-30T07:35:41.916Z,17.20
2018-04-30T07:38:10.823Z,17.10
2018-04-30T07:40:39.738Z,17.30
2018-04-30T07:43:09.398Z,17.30
2018-04-30T07:45:38.890Z,17.60
2018-04-30T07:48:07.189Z,17.50
2018-04-30T07:50:36.371Z,17.50
2018-04-30T07:53:05.830Z,17.60
2018-04-30T07:55:34.351Z,17.60
2018-04-30T07:58:03.409Z,17.50
2018-04-30T08:00:32.588Z,17.60
2018-04-30T08:03:01.398Z,17.60
2018-04-30T08:05:31.103Z,17.70
2018-04-30T08:08:00.614Z,17.60
2018-04-30T08:10:29.829Z,17.60
2018-04-30T08:12:58.567Z,17.60
2018-04-30T08:15:27.228Z,17.60
2018-04-30T08:17:56.049Z,17.60
2018-04-30T08:20:25.309Z,17.50
2018-04-30T08:22:53.817Z,17.50
2018-04-30T08:25:22.770Z,17.60
2018-04-30T08:27:51.771Z,17.60
2018-04-30T08:30:20.850Z,17.70
2018-04-30T08:32:49.515Z,17.70
2018-04-30T08:35:19.075Z,17.70
2018-04-30T08:37:48.018Z,17.70
2018-04-30T08:40:17.275Z,17.70
2018-04-30T08:42:46.174Z,17.80
2018-04-30T08:45:14.994Z,17.70
2018-04-30T08:47:44.755Z,17.70
2018-04-30T08:50:13.716Z,17.70
2018-04-30T08:52:42.755Z,17.70
2018-04-30T08:55:11.975Z,17.90
2018-04-30T08:57:40.996Z,17.90
2018-04-30T09:00:10.478Z,17.90
2018-04-30T09:02:39.471Z,17.70
2018-04-30T09:05:08.545Z,17.70
2018-04-30T09:07:37.207Z,17.80
2018-04-30T09:10:05.945Z,17.90
2018-04-30T09:12:35.693Z,18.10
2018-04-30T09:15:06.263Z,18.10
2018-04-30T09:17:37.017Z,18.20
2018-04-30T09:20:06.767Z,18.30
2018-04-30T09:22:37.808Z,18.30
2018-04-30T09:25:06.548Z,18.50
2018-04-30T09:27:35.388Z,18.50
2018-04-30T09:30:04.287Z,18.50
2018-04-30T09:32:33.787Z,18.50
2018-04-30T09:35:02.995Z,18.50
2018-04-30T09:37:31.972Z,18.70
2018-04-30T09:40:01.047Z,18.80
2018-04-30T09:42:30.786Z,18.90
2018-04-30T09:45:00.307Z,18.90
2018-04-30T09:47:29.526Z,19.10
2018-04-30T09:49:58.779Z,19.10
2018-04-30T09:52:27.700Z,19.00
2018-04-30T09:54:56.360Z,19.20
2018-04-30T09:57:24.760Z,19.10
2018-04-30T09:59:54.000Z,19.10
2018-04-30T10:02:24.051Z,19.30
2018-04-30T10:04:53.250Z,19.30
2018-04-30T10:07:22.087Z,19.40
2018-04-30T10:09:51.011Z,19.40
2018-04-30T10:12:20.750Z,19.50
2018-04-30T10:14:49.213Z,19.40
2018-04-30T10:17:18.991Z,19.50
2018-04-30T10:19:48.512Z,19.50
2018-04-30T10:22:17.478Z,19.60
2018-04-30T10:24:46.511Z,19.90
2018-04-30T10:27:15.712Z,20.10
2018-04-30T10:29:44.491Z,20.30
2018-04-30T10:32:13.478Z,20.70
2018-04-30T10:34:42.965Z,20.60
2018-04-30T10:37:11.962Z,20.50
2018-04-30T10:39:40.719Z,20.70
2018-04-30T10:42:10.159Z,20.90
2018-04-30T10:44:38.946Z,20.90
2018-04-30T10:47:07.687Z,20.90
2018-04-30T10:49:37.447Z,21.40
2018-04-30T10:52:06.352Z,21.30
2018-04-30T10:54:35.670Z,21.20
2018-04-30T10:57:04.995Z,21.30
2018-04-30T10:59:33.933Z,21.50
2018-04-30T11:02:02.555Z,21.70
2018-04-30T11:04:31.393Z,21.80
2018-04-30T11:06:59.717Z,22.00
2018-04-30T11:09:28.613Z,22.10
2018-04-30T11:11:57.153Z,22.30
2018-04-30T11:14:25.595Z,22.40
2018-04-30T11:16:54.591Z,22.50
2018-04-30T11:19:23.853Z,22.60
2018-04-30T11:21:52.313Z,22.80
2018-04-30T11:24:21.411Z,22.80
2018-04-30T11:26:50.054Z,22.80
2018-04-30T11:29:19.136Z,22.90
2018-04-30T11:31:48.501Z,23.00
2018-04-30T11:34:17.807Z,22.90
2018-04-30T11:36:47.289Z,22.90
2018-04-30T11:39:16.927Z,22.80
2018-04-30T11:41:46.312Z,22.80
2018-04-30T11:44:15.112Z,23.00
2018-04-30T11:46:44.307Z,22.90
2018-04-30T11:49:12.827Z,22.60
2018-04-30T11:51:41.747Z,22.50
2018-04-30T11:54:10.748Z,22.60
2018-04-30T11:56:39.488Z,22.70
2018-04-30T11:59:09.007Z,22.90
2018-04-30T12:01:39.029Z,22.90
2018-04-30T12:04:08.867Z,22.80
2018-04-30T12:06:37.989Z,22.80
2018-04-30T12:09:07.529Z,23.10
2018-04-30T12:11:36.788Z,23.10
2018-04-30T12:14:05.767Z,23.10
2018-04-30T12:16:34.943Z,23.30
2018-04-30T12:19:04.273Z,23.40
2018-04-30T12:21:34.027Z,23.30
2018-04-30T12:24:02.426Z,23.30
2018-04-30T12:26:30.755Z,23.50
2018-04-30T12:28:59.445Z,23.60
2018-04-30T12:31:28.124Z,23.70
2018-04-30T12:33:56.824Z,23.60
2018-04-30T12:36:25.663Z,23.60
2018-04-30T12:38:55.063Z,23.40
2018-04-30T12:41:23.423Z,23.50
2018-04-30T12:43:53.163Z,23.70
2018-04-30T12:46:22.165Z,23.70
2018-04-30T12:48:51.929Z,23.60
2018-04-30T12:51:21.441Z,23.60
2018-04-30T12:53:50.926Z,24.00
2018-04-30T12:56:19.683Z,24.00
2018-04-30T12:58:49.185Z,24.40
2018-04-30T13:01:18.431Z,24.40
2018-04-30T13:03:48.505Z,24.50
2018-04-30T13:06:17.465Z,24.40
2018-04-30T13:08:46.233Z,24.60
2018-04-30T13:11:15.424Z,24.90
2018-04-30T13:13:45.725Z,24.90
2018-04-30T13:16:15.104Z,24.80
2018-04-30T13:18:44.310Z,25.10
2018-04-30T13:21:13.962Z,25.40
2018-04-30T13:23:42.963Z,25.60
2018-04-30T13:26:11.965Z,25.70
2018-04-30T13:28:41.014Z,25.70
2018-04-30T13:31:10.963Z,26.00
2018-04-30T13:33:39.553Z,26.00
2018-04-30T13:36:08.697Z,26.10
2018-04-30T13:38:37.917Z,26.20
2018-04-30T13:41:06.661Z,26.10
2018-04-30T13:43:36.263Z,26.10
2018-04-30T13:46:05.199Z,26.00
2018-04-30T13:48:34.432Z,26.00
2018-04-30T13:51:03.170Z,26.40
2018-04-30T13:53:31.811Z,26.30
2018-04-30T13:56:01.647Z,26.00
2018-04-30T13:58:30.650Z,25.80
2018-04-30T14:00:59.896Z,25.60
2018-04-30T14:03:28.579Z,25.60
2018-04-30T14:05:57.376Z,25.90
2018-04-30T14:08:26.617Z,26.10
2018-04-30T14:10:55.401Z,26.10
2018-04-30T14:13:24.853Z,26.10
2018-04-30T14:15:53.617Z,26.00
2018-04-30T14:18:23.879Z,25.60
2018-04-30T14:20:52.616Z,25.60
2018-04-30T14:23:21.637Z,25.60
2018-04-30T14:25:50.614Z,25.40
2018-04-30T14:28:20.115Z,25.20
2018-04-30T14:30:49.115Z,25.00
2018-04-30T14:33:17.854Z,24.90
2018-04-30T14:35:46.959Z,24.80
2018-04-30T14:38:16.076Z,24.50
2018-04-30T14:40:44.818Z,24.30
2018-04-30T14:43:14.576Z,24.20
2018-04-30T14:45:43.574Z,24.10
2018-04-30T14:48:12.554Z,23.90
2018-04-30T14:50:41.000Z,23.60
2018-04-30T14:53:09.514Z,23.60
2018-04-30T14:55:38.007Z,23.60
2018-04-30T14:58:07.506Z,23.50
2018-04-30T15:00:37.022Z,23.30
2018-04-30T15:03:05.969Z,23.10
2018-04-30T15:05:35.307Z,22.80
2018-04-30T15:08:05.284Z,22.50
2018-04-30T15:10:34.528Z,22.30
2018-04-30T15:13:04.033Z,22.30
2018-04-30T15:15:33.796Z,22.40
2018-04-30T15:18:03.069Z,22.40
2018-04-30T15:20:32.028Z,22.30
2018-04-30T15:23:01.028Z,22.10
2018-04-30T15:25:29.509Z,22.10
2018-04-30T15:27:57.780Z,22.00
2018-04-30T15:30:26.308Z,22.10
2018-04-30T15:32:55.748Z,22.10
2018-04-30T15:35:24.650Z,22.10
2018-04-30T15:37:53.569Z,22.00
2018-04-30T15:40:22.747Z,21.90
2018-04-30T15:42:52.209Z,21.80
2018-04-30T15:45:20.949Z,21.60
2018-04-30T15:47:49.532Z,21.40
2018-04-30T15:50:18.550Z,21.50
2018-04-30T15:52:47.429Z,21.40
2018-04-30T15:55:17.168Z,21.50
2018-04-30T15:57:46.268Z,21.50
2018-04-30T16:00:15.428Z,21.50
2018-04-30T16:02:44.147Z,21.50
2018-04-30T16:05:13.910Z,21.40
2018-04-30T16:07:42.909Z,21.10
2018-04-30T16:10:11.549Z,20.90
2018-04-30T16:12:40.649Z,20.80
2018-04-30T16:15:09.369Z,20.80
2018-04-30T16:17:37.928Z,20.80
2018-04-30T16:20:06.593Z,20.90
2018-04-30T16:22:35.788Z,20.80
2018-04-30T16:25:05.288Z,20.70
2018-04-30T16:27:34.589Z,20.60
2018-04-30T16:30:03.108Z,20.50
2018-04-30T16:32:31.887Z,20.40
2018-04-30T16:35:00.568Z,20.50
2018-04-30T16:37:29.928Z,20.40
2018-04-30T16:39:59.029Z,20.40
2018-04-30T16:42:28.549Z,20.50
2018-04-30T16:44:57.549Z,20.60
2018-04-30T16:47:26.548Z,20.70
2018-04-30T16:49:55.531Z,20.60
2018-04-30T16:52:24.508Z,20.40
2018-04-30T16:54:54.029Z,20.30
2018-04-30T16:57:23.048Z,20.20
2018-04-30T16:59:52.308Z,20.10
2018-04-30T17:02:21.528Z,20.30
2018-04-30T17:04:50.251Z,20.20
2018-04-30T17:07:18.848Z,20.10
2018-04-30T17:09:47.591Z,20.20
2018-04-30T17:12:16.468Z,20.10
2018-04-30T17:14:45.751Z,20.10
2018-04-30T17:17:14.730Z,20.20
2018-04-30T17:19:43.064Z,20.20
2018-04-30T17:22:12.229Z,20.10
2018-04-30T17:24:41.130Z,20.00
2018-04-30T17:27:10.190Z,20.00
2018-04-30T17:29:39.722Z,20.20
2018-04-30T17:32:08.988Z,20.20
2018-04-30T17:34:37.949Z,20.20
2018-04-30T17:37:07.188Z,20.10
2018-04-30T17:39:37.209Z,20.10
2018-04-30T17:42:07.489Z,20.00
2018-04-30T17:44:36.468Z,20.00
2018-04-30T17:47:05.968Z,20.00
2018-04-30T17:49:35.069Z,20.10
2018-04-30T17:52:04.230Z,20.10
2018-04-30T17:54:33.968Z,20.10
2018-04-30T17:57:03.109Z,20.10
2018-04-30T17:59:32.208Z,20.00
2018-04-30T18:02:01.028Z,20.00
2018-04-30T18:04:30.449Z,20.00
2018-04-30T18:06:59.434Z,19.90
2018-04-30T18:09:28.709Z,19.90
2018-04-30T18:11:58.435Z,19.90
2018-04-30T18:14:27.709Z,19.90
2018-04-30T18:16:57.209Z,19.90
2018-04-30T18:19:26.216Z,19.80
2018-04-30T18:21:56.508Z,19.70
2018-04-30T18:24:25.770Z,19.70
2018-04-30T18:26:55.317Z,19.60
2018-04-30T18:29:24.187Z,19.70
2018-04-30T18:31:53.227Z,19.70
2018-04-30T18:34:22.747Z,19.60
2018-04-30T18:36:51.989Z,19.60
2018-04-30T18:39:20.387Z,19.50
2018-04-30T18:41:49.967Z,19.50
2018-04-30T18:44:19.744Z,19.30
2018-04-30T18:46:48.467Z,19.30
2018-04-30T18:49:17.206Z,19.30
2018-04-30T18:51:46.187Z,19.30
2018-04-30T18:54:15.467Z,19.30
2018-04-30T18:56:44.176Z,19.30
2018-04-30T18:59:12.908Z,19.30
2018-04-30T19:01:41.888Z,19.20
2018-04-30T19:04:11.327Z,19.10
2018-04-30T19:06:39.706Z,19.00
2018-04-30T19:09:08.108Z,19.00
2018-04-30T19:11:37.007Z,19.10
2018-04-30T19:14:06.608Z,19.10
2018-04-30T19:16:35.352Z,19.00
2018-04-30T19:19:04.627Z,19.00
2018-04-30T19:21:34.107Z,18.90
2018-04-30T19:24:03.447Z,19.00
2018-04-30T19:26:32.028Z,19.00
2018-04-30T19:29:00.927Z,19.00
2018-04-30T19:31:30.087Z,19.00
2018-04-30T19:33:59.567Z,19.00
2018-04-30T19:36:28.868Z,19.00
2018-04-30T19:38:57.567Z,19.00
2018-04-30T19:41:26.828Z,19.00
2018-04-30T19:43:56.848Z,19.10
2018-04-30T19:46:26.590Z,19.10
2018-04-30T19:48:55.768Z,19.10
2018-04-30T19:51:25.029Z,19.10
2018-04-30T19:53:54.108Z,19.00
2018-04-30T19:56:23.617Z,18.90
2018-04-30T19:58:54.129Z,18.80
2018-04-30T20:01:22.629Z,18.80
2018-04-30T20:03:52.309Z,18.70
2018-04-30T20:06:21.628Z,18.80
2018-04-30T20:08:51.241Z,18.70
2018-04-30T20:11:20.369Z,18.70
2018-04-30T20:13:50.149Z,18.70
2018-04-30T20:16:19.889Z,18.70
2018-04-30T20:18:48.889Z,18.70
2018-04-30T20:21:18.129Z,18.70
2018-04-30T20:23:47.130Z,18.70
2018-04-30T20:26:16.669Z,18.70
2018-04-30T20:28:45.749Z,18.70
2018-04-30T20:31:14.909Z,18.70
2018-04-30T20:33:44.670Z,18.80
2018-04-30T20:36:13.777Z,18.80
2018-04-30T20:38:43.149Z,18.70
2018-04-30T20:41:12.649Z,18.70
2018-04-30T20:43:42.137Z,18.70
2018-04-30T20:46:10.650Z,18.70
2018-04-30T20:48:40.256Z,18.60
2018-04-30T20:51:09.909Z,18.60
2018-04-30T20:53:39.870Z,18.60
2018-04-30T20:56:08.890Z,18.60
2018-04-30T20:58:37.789Z,18.60
2018-04-30T21:01:07.414Z,18.60
2018-04-30T21:03:37.157Z,18.50
2018-04-30T21:06:05.749Z,18.50
2018-04-30T21:08:45.850Z,18.50
2018-04-30T21:11:14.673Z,18.50
2018-04-30T21:13:44.409Z,18.50
2018-04-30T21:16:14.168Z,18.20
2018-04-30T21:18:42.910Z,18.20
2018-04-30T21:21:13.596Z,18.30
2018-04-30T21:23:42.949Z,18.10
2018-04-30T21:26:13.471Z,18.20
2018-04-30T21:28:43.554Z,18.10
2018-04-30T21:31:12.730Z,18.10
2018-04-30T21:33:42.223Z,18.10
2018-04-30T21:36:10.970Z,18.00
2018-04-30T21:38:39.709Z,18.00
2018-04-30T21:41:09.468Z,18.00
2018-04-30T21:43:38.169Z,18.00
2018-04-30T21:46:06.349Z,17.90
2018-04-30T21:48:35.249Z,17.90
2018-04-30T21:51:04.349Z,18.00
2018-04-30T21:53:33.408Z,18.00
2018-04-30T21:56:02.368Z,18.00
2018-04-30T21:58:31.432Z,17.90
2018-04-30T22:01:00.909Z,17.90
2018-04-30T22:03:29.628Z,17.80
2018-04-30T22:05:58.629Z,17.80
2018-04-30T22:08:27.889Z,17.80
2018-04-30T22:10:57.141Z,17.70
2018-04-30T22:13:27.403Z,17.70
2018-04-30T22:15:56.402Z,17.70
2018-04-30T22:18:25.162Z,17.70
2018-04-30T22:20:55.621Z,17.70
2018-04-30T22:23:25.162Z,17.70
2018-04-30T22:25:53.642Z,17.60
2018-04-30T22:28:23.683Z,17.60
2018-04-30T22:30:53.682Z,17.60
2018-04-30T22:33:22.688Z,17.60
2018-04-30T22:35:52.183Z,17.50
2018-04-30T22:38:21.445Z,17.40
2018-04-30T22:40:50.181Z,17.50
2018-04-30T22:43:19.681Z,17.60
2018-04-30T22:45:48.423Z,17.60
2018-04-30T22:48:18.422Z,17.50
2018-04-30T22:50:47.422Z,17.50
2018-04-30T22:53:16.181Z,17.50
2018-04-30T22:55:45.005Z,17.60
2018-04-30T22:58:14.621Z,17.40
2018-04-30T23:00:43.802Z,17.30
2018-04-30T23:03:13.173Z,17.30
2018-04-30T23:05:42.943Z,17.20
2018-04-30T23:08:13.261Z,17.10
2018-04-30T23:10:42.181Z,17.10
2018-04-30T23:13:11.423Z,17.00
2018-04-30T23:15:40.681Z,17.00
2018-04-30T23:18:09.362Z,16.90
2018-04-30T23:20:38.921Z,16.80
2018-04-30T23:23:07.288Z,16.70
2018-04-30T23:25:36.629Z,16.70
2018-04-30T23:28:05.750Z,16.70
2018-04-30T23:30:35.441Z,16.80
2018-04-30T23:33:04.441Z,16.90
2018-04-30T23:35:34.165Z,17.00
2018-04-30T23:38:03.001Z,17.00
2018-04-30T23:40:32.422Z,16.90
2018-04-30T23:43:01.402Z,16.90
2018-04-30T23:45:30.643Z,16.80
2018-04-30T23:48:00.169Z,16.90
2018-04-30T23:50:29.683Z,17.00
2018-04-30T23:52:59.162Z,17.00
2018-04-30T23:55:28.170Z,17.10
2018-04-30T23:57:57.407Z,17.10
